Inuvik, Inuvik Airport (CYEV)

NameInuvik Airport
CityInuvik
CountryCanada
ICAOCYEV
IATAYEV
Altitude68 m
CoordinatesGoogle Map
Live Air TrafficLiveATC.net
METARCYEV 180200Z 06015G20KT 15SM FEW010 OVC053 M04/M07 A2960 RMK SF1SC8 SF TR SLP031
2019-10-18 02:00:00 Wind: Northeast (60°) 7.72 m/s - Visibility: 24140.1 m - Temperature: -4 °C - Dew point: -7 °C - Humidity: 79.9% - Pressure: 1002.37 hPa

Sorry, no flights used the airport in this database.